createdAt,value
2023-01-26T00:00:02.325Z,22.17
2023-01-26T00:02:33.709Z,23.30
2023-01-26T00:05:02.189Z,23.33
2023-01-26T00:07:30.868Z,21.73
2023-01-26T00:09:59.271Z,22.47
2023-01-26T00:12:29.305Z,22.23
2023-01-26T00:14:57.674Z,23.60
2023-01-26T00:17:29.137Z,22.80
2023-01-26T00:19:59.134Z,22.67
2023-01-26T00:22:28.739Z,22.83
2023-01-26T00:24:57.196Z,23.80
2023-01-26T00:27:25.742Z,22.37
2023-01-26T00:29:55.558Z,23.30
2023-01-26T00:32:24.105Z,22.73
2023-01-26T00:34:52.552Z,21.83
2023-01-26T00:37:21.065Z,21.33
2023-01-26T00:39:49.525Z,21.83
2023-01-26T00:42:18.420Z,22.37
2023-01-26T00:44:46.784Z,22.97
2023-01-26T00:47:16.678Z,21.90
2023-01-26T00:49:45.448Z,21.53
2023-01-26T00:52:14.111Z,22.90
2023-01-26T00:54:42.581Z,22.53
2023-01-26T00:57:11.319Z,22.57
2023-01-26T00:59:39.745Z,21.73
2023-01-26T01:02:08.369Z,23.43
2023-01-26T01:04:38.306Z,21.60
2023-01-26T01:07:06.917Z,21.63
2023-01-26T01:09:35.394Z,21.00
2023-01-26T01:12:03.932Z,21.70
2023-01-26T01:14:32.437Z,21.40
2023-01-26T01:17:00.933Z,22.17
2023-01-26T01:19:29.454Z,21.27
2023-01-26T01:21:59.486Z,21.43
2023-01-26T01:24:27.957Z,21.83
2023-01-26T01:26:56.768Z,20.10
2023-01-26T01:29:25.207Z,21.03
2023-01-26T01:31:53.760Z,19.90
2023-01-26T01:34:22.459Z,21.20
2023-01-26T01:36:51.003Z,22.33
2023-01-26T01:39:20.775Z,21.43
2023-01-26T01:41:49.352Z,22.17
2023-01-26T01:44:20.896Z,21.50
2023-01-26T01:46:56.152Z,21.53
2023-01-26T01:49:28.620Z,21.97
2023-01-26T01:52:01.131Z,22.97
2023-01-26T01:54:34.935Z,22.27
2023-01-26T01:57:15.802Z,22.10
2023-01-26T01:59:52.229Z,22.50
2023-01-26T02:02:40.300Z,23.10
2023-01-26T02:05:18.519Z,21.03
2023-01-26T02:07:47.603Z,22.50
2023-01-26T02:10:20.912Z,23.00
2023-01-26T02:12:55.571Z,22.33
2023-01-26T02:15:24.756Z,22.70
2023-01-26T02:17:54.028Z,22.37
2023-01-26T02:20:29.466Z,23.30
2023-01-26T02:23:05.191Z,23.67
2023-01-26T02:25:42.683Z,22.93
2023-01-26T02:28:13.320Z,23.60
2023-01-26T02:30:41.841Z,24.30
2023-01-26T02:33:16.459Z,23.60
2023-01-26T02:35:45.184Z,24.37
2023-01-26T02:38:14.781Z,25.27
2023-01-26T02:40:49.992Z,24.93
2023-01-26T02:43:21.486Z,22.97
2023-01-26T02:45:49.917Z,24.57
2023-01-26T02:48:39.121Z,24.50
2023-01-26T02:51:07.565Z,25.00
2023-01-26T02:53:36.086Z,23.30
2023-01-26T02:56:03.676Z,24.37
2023-01-26T02:58:33.614Z,24.30
2023-01-26T03:01:02.117Z,24.23
2023-01-26T03:03:42.587Z,25.37
2023-01-26T03:06:11.918Z,27.20
2023-01-26T03:08:41.556Z,26.70
2023-01-26T03:11:10.836Z,25.80
2023-01-26T03:13:40.866Z,26.57
2023-01-26T03:16:12.021Z,26.20
2023-01-26T03:18:58.312Z,26.47
2023-01-26T03:21:43.953Z,28.20
2023-01-26T03:24:32.816Z,27.27
2023-01-26T03:27:20.535Z,25.47
2023-01-26T03:29:50.465Z,26.70
2023-01-26T03:32:19.423Z,27.70
2023-01-26T03:34:48.791Z,26.93
2023-01-26T03:37:22.119Z,27.20
2023-01-26T03:40:18.342Z,26.20
2023-01-26T03:43:04.033Z,26.17
2023-01-26T03:45:51.087Z,24.33
2023-01-26T03:48:39.646Z,28.10
2023-01-26T03:51:25.482Z,24.93
2023-01-26T03:54:11.264Z,23.87
2023-01-26T03:56:40.077Z,24.10
2023-01-26T03:59:15.804Z,24.37
2023-01-26T04:02:05.870Z,23.13
2023-01-26T04:04:53.433Z,23.90
2023-01-26T04:07:43.809Z,24.13
2023-01-26T04:10:12.935Z,24.17
2023-01-26T04:12:42.052Z,24.13
2023-01-26T04:15:36.296Z,24.07
2023-01-26T04:18:26.794Z,22.70
2023-01-26T04:21:13.443Z,22.23
2023-01-26T04:23:44.478Z,21.47
2023-01-26T04:26:12.865Z,23.63
2023-01-26T04:28:41.921Z,23.10
2023-01-26T04:31:10.543Z,21.90
2023-01-26T04:33:41.310Z,22.40
2023-01-26T04:36:11.073Z,23.37
2023-01-26T04:38:43.381Z,23.60
2023-01-26T04:41:12.601Z,25.10
2023-01-26T04:43:46.592Z,23.60
2023-01-26T04:46:15.419Z,23.97
2023-01-26T04:48:46.382Z,24.33
2023-01-26T04:51:16.915Z,23.93
2023-01-26T04:53:45.469Z,22.30
2023-01-26T04:56:20.548Z,22.33
2023-01-26T04:58:49.141Z,21.80
2023-01-26T05:01:18.265Z,24.90
2023-01-26T05:03:49.291Z,23.10
2023-01-26T05:06:18.046Z,24.63
2023-01-26T05:08:48.960Z,23.10
2023-01-26T05:11:17.416Z,22.77
2023-01-26T05:13:58.091Z,24.10
2023-01-26T05:16:45.057Z,22.90
2023-01-26T05:19:37.805Z,22.93
2023-01-26T05:22:21.836Z,22.07
2023-01-26T05:25:13.384Z,23.53
2023-01-26T05:27:49.191Z,25.00
2023-01-26T05:30:18.269Z,25.30
2023-01-26T05:32:46.966Z,23.60
2023-01-26T05:35:17.667Z,25.47
2023-01-26T05:37:47.127Z,23.70
2023-01-26T05:40:16.478Z,22.40
2023-01-26T05:42:46.461Z,23.90
2023-01-26T05:45:40.937Z,25.53
2023-01-26T05:48:10.657Z,24.57
2023-01-26T05:50:40.708Z,23.53
2023-01-26T05:53:15.285Z,23.23
2023-01-26T05:55:44.865Z,23.10
2023-01-26T05:58:14.186Z,23.10
2023-01-26T06:00:42.755Z,24.23
2023-01-26T06:03:18.811Z,24.00
2023-01-26T06:05:55.940Z,23.83
2023-01-26T06:08:33.814Z,23.43
2023-01-26T06:11:28.766Z,24.27
2023-01-26T06:14:08.270Z,23.23
2023-01-26T06:16:36.791Z,23.87
2023-01-26T06:19:06.878Z,23.37
2023-01-26T06:21:36.772Z,22.90
2023-01-26T06:24:06.128Z,24.40
2023-01-26T06:26:34.669Z,23.20
2023-01-26T06:29:03.687Z,20.87
2023-01-26T06:31:37.908Z,23.17
2023-01-26T06:34:07.973Z,23.70
2023-01-26T06:36:41.981Z,21.20
2023-01-26T06:39:16.991Z,22.00
2023-01-26T06:41:45.593Z,23.20
2023-01-26T06:44:14.308Z,21.47
2023-01-26T06:46:42.739Z,21.30
2023-01-26T06:49:11.453Z,21.80
2023-01-26T06:51:48.949Z,21.77
2023-01-26T06:54:18.246Z,23.33
2023-01-26T06:57:05.385Z,22.07
2023-01-26T07:00:03.289Z,21.10
2023-01-26T07:02:55.591Z,21.23
2023-01-26T07:05:24.193Z,21.13
2023-01-26T07:07:54.177Z,22.30
2023-01-26T07:10:22.889Z,19.73
2023-01-26T07:12:51.321Z,21.60
2023-01-26T07:15:19.922Z,20.00
2023-01-26T07:17:48.318Z,18.67
2023-01-26T07:20:17.452Z,19.73
2023-01-26T07:22:45.889Z,18.07
2023-01-26T07:25:15.957Z,18.83
2023-01-26T07:27:44.809Z,16.00
2023-01-26T07:30:15.450Z,14.70
2023-01-26T07:32:43.948Z,14.40
2023-01-26T07:35:12.615Z,15.90
2023-01-26T07:37:41.146Z,16.57
2023-01-26T07:40:11.112Z,16.20
2023-01-26T07:42:41.233Z,18.80
2023-01-26T07:45:41.713Z,15.90
2023-01-26T07:48:10.462Z,17.80
2023-01-26T07:50:39.024Z,18.17
2023-01-26T07:53:09.244Z,17.63
2023-01-26T07:55:37.796Z,18.00
2023-01-26T07:58:07.857Z,16.27
2023-01-26T08:00:36.975Z,16.00
2023-01-26T08:03:08.988Z,17.27
2023-01-26T08:05:38.683Z,18.87
2023-01-26T08:08:09.678Z,16.00
2023-01-26T08:10:38.314Z,17.93
2023-01-26T08:13:08.241Z,16.30
2023-01-26T08:15:36.715Z,16.37
2023-01-26T08:18:06.049Z,16.20
2023-01-26T08:20:35.910Z,17.03
2023-01-26T08:23:04.647Z,18.20
2023-01-26T08:25:34.167Z,17.20
2023-01-26T08:28:03.513Z,16.73
2023-01-26T08:30:33.683Z,17.27
2023-01-26T08:33:02.206Z,15.93
2023-01-26T08:35:32.309Z,17.43
2023-01-26T08:38:00.911Z,19.27
2023-01-26T08:40:29.400Z,18.47
2023-01-26T08:43:01.429Z,18.07
2023-01-26T08:45:31.952Z,19.33
2023-01-26T08:48:01.863Z,18.23
2023-01-26T08:50:30.444Z,18.97
2023-01-26T08:52:58.901Z,19.93
2023-01-26T08:55:28.701Z,21.40
2023-01-26T08:57:57.769Z,21.23
2023-01-26T09:00:26.647Z,21.03
2023-01-26T09:03:01.891Z,19.20
2023-01-26T09:05:34.092Z,19.60
2023-01-26T09:08:03.059Z,19.37
2023-01-26T09:10:31.910Z,20.07
2023-01-26T09:13:01.233Z,19.20
2023-01-26T09:15:30.171Z,18.50
2023-01-26T09:18:00.740Z,19.60
2023-01-26T09:20:31.026Z,19.77
2023-01-26T09:22:59.518Z,18.27
2023-01-26T09:25:28.067Z,18.33
2023-01-26T09:27:56.544Z,17.77
2023-01-26T09:30:26.264Z,18.27
2023-01-26T09:32:58.730Z,16.57
2023-01-26T09:35:27.361Z,17.27
2023-01-26T09:37:57.528Z,16.80
2023-01-26T09:40:33.733Z,16.70
2023-01-26T09:43:10.883Z,17.50
2023-01-26T09:45:47.592Z,16.70
2023-01-26T09:48:28.643Z,16.03
2023-01-26T09:51:01.751Z,17.50
2023-01-26T09:53:42.411Z,15.10
2023-01-26T09:56:18.277Z,13.97
2023-01-26T09:58:50.404Z,15.00
2023-01-26T10:01:25.195Z,13.90
2023-01-26T10:04:02.936Z,14.10
2023-01-26T10:06:32.441Z,13.77
2023-01-26T10:09:16.891Z,12.80
2023-01-26T10:11:48.038Z,12.07
2023-01-26T10:14:22.166Z,13.40
2023-01-26T10:16:52.843Z,12.30
2023-01-26T10:19:33.679Z,12.13
2023-01-26T10:22:07.350Z,12.33
2023-01-26T10:24:37.342Z,13.20
2023-01-26T10:27:14.181Z,13.47
2023-01-26T10:29:42.736Z,12.50
2023-01-26T10:32:15.725Z,12.70
2023-01-26T10:34:45.410Z,13.07
2023-01-26T10:37:22.668Z,13.07
2023-01-26T10:40:04.572Z,12.67
2023-01-26T10:42:34.707Z,11.93
2023-01-26T10:45:06.229Z,12.47
2023-01-26T10:47:34.683Z,11.70
2023-01-26T10:50:21.582Z,12.73
2023-01-26T10:53:00.897Z,12.90
2023-01-26T10:55:31.960Z,13.63
2023-01-26T10:58:00.601Z,11.57
2023-01-26T11:00:31.631Z,12.40
2023-01-26T11:03:08.087Z,13.17
2023-01-26T11:05:36.635Z,12.63
2023-01-26T11:08:07.073Z,12.30
2023-01-26T11:10:38.415Z,12.20
2023-01-26T11:13:16.679Z,13.50
2023-01-26T11:15:47.784Z,11.93
2023-01-26T11:18:36.815Z,12.23
2023-01-26T11:21:10.077Z,12.30
2023-01-26T11:23:49.904Z,12.70
2023-01-26T11:26:53.486Z,12.00
2023-01-26T11:29:44.093Z,11.97
2023-01-26T11:32:22.044Z,12.40
2023-01-26T11:34:59.922Z,12.60
2023-01-26T11:37:41.480Z,12.60
2023-01-26T11:40:23.463Z,12.50
2023-01-26T11:43:13.614Z,12.50
2023-01-26T11:46:04.504Z,12.37
2023-01-26T11:48:41.625Z,12.73
2023-01-26T11:51:19.678Z,12.90
2023-01-26T11:54:03.668Z,12.00
2023-01-26T11:56:43.935Z,11.60
2023-01-26T11:59:18.980Z,10.70
2023-01-26T12:01:54.066Z,10.70
2023-01-26T12:04:23.665Z,11.30
2023-01-26T12:06:56.162Z,12.03
2023-01-26T12:09:32.812Z,11.70
2023-01-26T12:12:06.295Z,12.90
2023-01-26T12:14:41.478Z,12.53
2023-01-26T12:17:24.925Z,12.03
2023-01-26T12:20:04.482Z,12.50
2023-01-26T12:22:36.559Z,11.70
2023-01-26T12:25:20.353Z,12.60
2023-01-26T12:27:56.657Z,12.93
2023-01-26T12:30:35.677Z,12.50
2023-01-26T12:33:04.439Z,12.03
2023-01-26T12:35:47.109Z,12.30
2023-01-26T12:38:20.606Z,11.97
2023-01-26T12:41:04.645Z,13.40
2023-01-26T12:43:46.450Z,12.47
2023-01-26T12:46:18.658Z,12.20
2023-01-26T12:48:52.512Z,12.80
2023-01-26T12:51:24.871Z,11.73
2023-01-26T12:53:58.709Z,11.87
2023-01-26T12:56:32.313Z,11.80
2023-01-26T12:59:08.495Z,12.93
2023-01-26T13:01:43.381Z,12.23
2023-01-26T13:04:14.563Z,11.70
2023-01-26T13:06:43.436Z,13.60
2023-01-26T13:09:23.762Z,11.50
2023-01-26T13:11:54.949Z,12.20
2023-01-26T13:14:38.395Z,12.33
2023-01-26T13:17:45.484Z,13.23
2023-01-26T13:20:43.280Z,10.90
2023-01-26T13:23:52.686Z,12.70
2023-01-26T13:26:43.329Z,12.37
2023-01-26T13:29:34.083Z,12.40
2023-01-26T13:32:57.859Z,11.63
2023-01-26T13:35:28.478Z,13.33
2023-01-26T13:38:04.464Z,13.10
2023-01-26T13:40:35.331Z,11.23
2023-01-26T13:43:25.839Z,12.60
2023-01-26T13:46:13.789Z,13.20
2023-01-26T13:48:46.030Z,12.63
2023-01-26T13:51:19.180Z,13.37
2023-01-26T13:53:57.793Z,13.40
2023-01-26T13:56:29.786Z,12.30
2023-01-26T13:59:13.202Z,12.80
2023-01-26T14:01:43.674Z,13.50
2023-01-26T14:04:16.180Z,13.73
2023-01-26T14:06:50.034Z,13.17
2023-01-26T14:09:19.547Z,13.60
2023-01-26T14:11:58.267Z,13.20
2023-01-26T14:14:28.635Z,12.80
2023-01-26T14:17:00.163Z,12.80
2023-01-26T14:19:29.794Z,11.17
2023-01-26T14:22:01.373Z,10.90
2023-01-26T14:24:35.574Z,9.73
2023-01-26T14:27:04.256Z,8.10
2023-01-26T14:29:38.317Z,7.90
2023-01-26T14:32:16.324Z,8.33
2023-01-26T14:34:54.208Z,8.50
2023-01-26T14:37:24.436Z,8.73
2023-01-26T14:40:11.954Z,8.80
2023-01-26T14:42:41.990Z,8.33
2023-01-26T14:45:14.231Z,9.17
2023-01-26T14:47:43.524Z,8.93
2023-01-26T14:50:27.095Z,8.47
2023-01-26T14:52:57.699Z,8.67
2023-01-26T14:55:29.155Z,8.77
2023-01-26T14:57:58.899Z,8.23
2023-01-26T15:00:30.641Z,9.17
2023-01-26T15:03:01.851Z,8.80
2023-01-26T15:05:35.180Z,8.40
2023-01-26T15:08:17.474Z,8.73
2023-01-26T15:10:55.404Z,9.10
2023-01-26T15:13:25.589Z,9.50
2023-01-26T15:16:04.965Z,9.70
2023-01-26T15:18:34.173Z,9.40
2023-01-26T15:21:12.364Z,9.30
2023-01-26T15:23:45.726Z,8.70
2023-01-26T15:26:24.248Z,8.10
2023-01-26T15:28:53.804Z,9.83
2023-01-26T15:31:26.499Z,7.50
2023-01-26T15:33:55.983Z,7.50
2023-01-26T15:36:30.989Z,7.97
2023-01-26T15:39:11.996Z,7.57
2023-01-26T15:41:41.140Z,7.00
2023-01-26T15:44:16.581Z,6.87
2023-01-26T15:46:45.509Z,7.87
2023-01-26T15:49:14.448Z,6.33
2023-01-26T15:51:42.826Z,7.10
2023-01-26T15:54:13.419Z,7.03
2023-01-26T15:56:41.817Z,7.80
2023-01-26T15:59:10.542Z,8.07
2023-01-26T16:01:39.005Z,7.53
2023-01-26T16:04:07.489Z,8.27
2023-01-26T16:06:35.975Z,7.60
2023-01-26T16:09:04.636Z,7.20
2023-01-26T16:11:38.554Z,8.10
2023-01-26T16:14:07.998Z,7.40
2023-01-26T16:16:36.539Z,7.53
2023-01-26T16:19:05.121Z,6.97
2023-01-26T16:21:39.440Z,8.47
2023-01-26T16:24:11.315Z,7.07
2023-01-26T16:26:41.157Z,7.40
2023-01-26T16:29:09.661Z,7.63
2023-01-26T16:31:38.190Z,8.83
2023-01-26T16:34:06.760Z,8.20
2023-01-26T16:36:35.210Z,8.87
2023-01-26T16:39:03.716Z,8.20
2023-01-26T16:41:33.709Z,8.27
2023-01-26T16:44:04.442Z,7.90
2023-01-26T16:46:33.279Z,7.40
2023-01-26T16:49:01.645Z,8.13
2023-01-26T16:51:32.492Z,8.57
2023-01-26T16:54:00.998Z,8.27
2023-01-26T16:56:29.553Z,8.73
2023-01-26T16:58:57.995Z,8.03
2023-01-26T17:01:32.265Z,8.70
2023-01-26T17:04:01.517Z,9.10
2023-01-26T17:06:30.641Z,8.63
2023-01-26T17:08:59.733Z,9.03
2023-01-26T17:11:30.363Z,7.87
2023-01-26T17:13:59.357Z,7.90
2023-01-26T17:16:32.183Z,8.33
2023-01-26T17:19:00.724Z,10.43
2023-01-26T17:21:29.291Z,10.27
2023-01-26T17:23:59.192Z,9.10
2023-01-26T17:26:27.826Z,12.63
2023-01-26T17:28:57.048Z,10.27
2023-01-26T17:31:26.436Z,17.53
2023-01-26T17:33:56.371Z,17.10
2023-01-26T17:36:25.329Z,17.27
2023-01-26T17:38:53.827Z,15.57
2023-01-26T17:41:22.584Z,15.03
2023-01-26T17:43:51.388Z,12.03
2023-01-26T17:46:22.028Z,10.43
2023-01-26T17:48:51.634Z,10.60
2023-01-26T17:51:23.212Z,10.10
2023-01-26T17:53:51.772Z,9.00
2023-01-26T17:56:21.843Z,9.27
2023-01-26T17:58:51.639Z,9.77
2023-01-26T18:01:21.090Z,8.83
2023-01-26T18:03:49.877Z,10.20
2023-01-26T18:06:18.639Z,8.80
2023-01-26T18:08:48.554Z,9.37
2023-01-26T18:11:18.318Z,9.30
2023-01-26T18:13:46.788Z,9.40
2023-01-26T18:16:18.810Z,9.90
2023-01-26T18:18:47.538Z,11.23
2023-01-26T18:21:17.751Z,8.50
2023-01-26T18:23:49.290Z,9.30
2023-01-26T18:26:18.854Z,9.77
2023-01-26T18:28:48.012Z,10.83
2023-01-26T18:31:18.661Z,11.50
2023-01-26T18:33:50.501Z,11.33
2023-01-26T18:36:20.805Z,11.27
2023-01-26T18:38:53.365Z,12.00
2023-01-26T18:41:23.528Z,11.43
2023-01-26T18:43:52.868Z,12.83
2023-01-26T18:46:22.086Z,11.90
2023-01-26T18:48:52.909Z,11.77
2023-01-26T18:51:22.674Z,12.97
2023-01-26T18:53:52.616Z,11.60
2023-01-26T18:56:21.164Z,12.23
2023-01-26T18:58:52.387Z,9.03
2023-01-26T19:01:22.232Z,11.63
2023-01-26T19:03:55.047Z,11.23
2023-01-26T19:06:25.194Z,11.77
2023-01-26T19:08:58.368Z,10.30
2023-01-26T19:11:28.855Z,9.67
2023-01-26T19:13:57.534Z,10.40
2023-01-26T19:16:27.008Z,11.40
2023-01-26T19:18:56.350Z,11.50
2023-01-26T19:21:25.929Z,10.87
2023-01-26T19:23:58.533Z,10.93
2023-01-26T19:26:29.874Z,10.23
2023-01-26T19:28:59.240Z,10.60
2023-01-26T19:31:28.737Z,10.87
2023-01-26T19:33:59.134Z,10.30
2023-01-26T19:36:29.542Z,11.00
2023-01-26T19:39:00.116Z,10.80
2023-01-26T19:41:28.668Z,10.37
2023-01-26T19:43:57.633Z,10.57
2023-01-26T19:46:26.389Z,11.20
2023-01-26T19:48:55.004Z,10.67
2023-01-26T19:51:25.270Z,11.87
2023-01-26T19:53:57.549Z,12.40
2023-01-26T19:56:29.348Z,9.97
2023-01-26T19:58:59.492Z,11.77
2023-01-26T20:01:30.126Z,11.07
2023-01-26T20:04:00.704Z,11.17
2023-01-26T20:06:32.233Z,11.63
2023-01-26T20:09:01.339Z,10.90
2023-01-26T20:11:31.632Z,13.13
2023-01-26T20:14:01.805Z,13.13
2023-01-26T20:16:31.071Z,13.00
2023-01-26T20:19:00.201Z,12.50
2023-01-26T20:21:30.058Z,11.90
2023-01-26T20:24:05.351Z,11.80
2023-01-26T20:26:36.141Z,11.50
2023-01-26T20:29:05.076Z,12.30
2023-01-26T20:31:34.247Z,12.83
2023-01-26T20:34:03.237Z,11.30
2023-01-26T20:36:32.442Z,11.87
2023-01-26T20:39:01.324Z,12.10
2023-01-26T20:41:31.519Z,13.17
2023-01-26T20:44:11.781Z,11.93
2023-01-26T20:46:42.151Z,12.73
2023-01-26T20:49:14.598Z,12.47
2023-01-26T20:51:45.402Z,13.40
2023-01-26T20:54:15.959Z,14.20
2023-01-26T20:56:45.873Z,15.10
2023-01-26T20:59:15.926Z,14.53
2023-01-26T21:01:44.424Z,13.27
2023-01-26T21:04:12.922Z,14.37
2023-01-26T21:06:41.865Z,12.53
2023-01-26T21:09:12.784Z,13.07
2023-01-26T21:11:41.784Z,12.00
2023-01-26T21:14:13.417Z,10.83
2023-01-26T21:16:43.860Z,11.40
2023-01-26T21:19:12.557Z,11.27
2023-01-26T21:21:41.101Z,12.07
2023-01-26T21:24:09.822Z,13.20
2023-01-26T21:26:38.569Z,12.33
2023-01-26T21:29:07.752Z,11.93
2023-01-26T21:31:36.258Z,11.70
2023-01-26T21:34:06.773Z,11.40
2023-01-26T21:36:35.238Z,17.63
2023-01-26T21:39:03.870Z,15.97
2023-01-26T21:41:50.833Z,11.70
2023-01-26T21:44:20.895Z,12.43
2023-01-26T21:46:51.452Z,13.53
2023-01-26T21:49:22.128Z,12.40
2023-01-26T21:52:08.394Z,12.00
2023-01-26T21:54:37.141Z,11.40
2023-01-26T21:57:27.752Z,12.20
2023-01-26T21:59:55.931Z,12.17
2023-01-26T22:02:24.917Z,12.50
2023-01-26T22:04:55.184Z,11.60
2023-01-26T22:07:23.835Z,10.90
2023-01-26T22:09:52.325Z,11.90
2023-01-26T22:12:22.963Z,11.40
2023-01-26T22:14:52.564Z,12.03
2023-01-26T22:17:21.744Z,12.27
2023-01-26T22:19:50.361Z,11.07
2023-01-26T22:22:20.173Z,12.13
2023-01-26T22:24:48.601Z,12.07
2023-01-26T22:27:17.175Z,12.90
2023-01-26T22:29:45.556Z,11.80
2023-01-26T22:32:14.639Z,9.90
2023-01-26T22:34:43.073Z,11.00
2023-01-26T22:37:11.654Z,9.57
2023-01-26T22:39:41.673Z,13.10
2023-01-26T22:42:10.093Z,14.50
2023-01-26T22:44:38.569Z,13.00
2023-01-26T22:47:06.953Z,10.53
2023-01-26T22:49:35.474Z,11.27
2023-01-26T22:52:06.649Z,11.20
2023-01-26T22:54:35.691Z,11.63
2023-01-26T22:57:05.574Z,9.83
2023-01-26T22:59:34.140Z,11.93
2023-01-26T23:02:03.381Z,10.83
2023-01-26T23:04:32.012Z,11.20
2023-01-26T23:07:01.717Z,11.40
2023-01-26T23:09:30.245Z,11.97
2023-01-26T23:12:02.560Z,10.83
2023-01-26T23:14:34.169Z,10.43
2023-01-26T23:17:02.605Z,11.73
2023-01-26T23:19:33.630Z,10.60
2023-01-26T23:22:02.146Z,10.97
2023-01-26T23:24:30.788Z,10.40
2023-01-26T23:26:59.218Z,10.83
2023-01-26T23:29:27.817Z,10.87
2023-01-26T23:31:57.715Z,10.90
2023-01-26T23:34:26.287Z,10.87
2023-01-26T23:36:54.714Z,11.33
2023-01-26T23:39:23.242Z,11.03
2023-01-26T23:41:51.651Z,10.87
2023-01-26T23:44:20.208Z,11.67
2023-01-26T23:46:48.771Z,10.83
2023-01-26T23:49:18.712Z,10.43
2023-01-26T23:51:47.134Z,10.70
2023-01-26T23:54:15.780Z,9.80
2023-01-26T23:56:44.186Z,9.03
2023-01-26T23:59:12.702Z,10.17
